createdAt,value
2023-04-11T00:00:25.730Z,96995.88
2023-04-11T00:02:57.626Z,96987.84
2023-04-11T00:05:30.577Z,96968.81
2023-04-11T00:08:02.221Z,96982.06
2023-04-11T00:10:34.197Z,96977.53
2023-04-11T00:13:05.906Z,96984.91
2023-04-11T00:15:37.553Z,96970.94
2023-04-11T00:18:09.164Z,96968.28
2023-04-11T00:20:40.746Z,96979.38
2023-04-11T00:23:12.918Z,96992.06
2023-04-11T00:25:44.605Z,96982.81
2023-04-11T00:28:16.252Z,96996.34
2023-04-11T00:30:47.875Z,97009.47
2023-04-11T00:33:19.525Z,97000.72
2023-04-11T00:35:51.149Z,96994.34
2023-04-11T00:38:23.296Z,96986.91
2023-04-11T00:40:55.152Z,96981.75
2023-04-11T00:43:26.774Z,96977.38
2023-04-11T00:45:58.571Z,96974.28
2023-04-11T00:48:31.489Z,96978.84
2023-04-11T00:51:03.427Z,96963.06
2023-04-11T00:53:37.654Z,96975.00
2023-04-11T00:56:10.260Z,96954.28
2023-04-11T00:58:42.739Z,96950.88
2023-04-11T01:01:14.635Z,96955.59
2023-04-11T01:03:46.454Z,96955.63
2023-04-11T01:06:20.121Z,96960.50
2023-04-11T01:08:52.247Z,96958.13
2023-04-11T01:11:24.941Z,96962.88
2023-04-11T01:13:56.917Z,96962.66
2023-04-11T01:16:29.270Z,96958.56
2023-04-11T01:19:00.888Z,96970.06
2023-04-11T01:21:33.589Z,96977.28
2023-04-11T01:24:05.746Z,96979.34
2023-04-11T01:26:37.863Z,96984.53
2023-04-11T01:29:10.488Z,96982.56
2023-04-11T01:31:43.385Z,96978.94
2023-04-11T01:34:15.956Z,96986.25
2023-04-11T01:37:01.409Z,96989.50
2023-04-11T01:39:36.150Z,96990.72
2023-04-11T01:42:10.081Z,96997.78
2023-04-11T01:44:42.518Z,97017.53
2023-04-11T01:47:14.716Z,97008.66
2023-04-11T01:49:46.934Z,97008.44
2023-04-11T01:52:18.944Z,97006.97
2023-04-11T01:54:50.670Z,97003.78
2023-04-11T01:57:22.260Z,97002.53
2023-04-11T01:59:53.891Z,97006.47
2023-04-11T02:02:25.640Z,96992.69
2023-04-11T02:04:57.552Z,96991.25
2023-04-11T02:07:29.262Z,96990.53
2023-04-11T02:10:01.009Z,96997.22
2023-04-11T02:12:32.632Z,96990.56
2023-04-11T02:15:04.808Z,96991.31
2023-04-11T02:17:36.645Z,96988.22
2023-04-11T02:20:09.317Z,97001.25
2023-04-11T02:22:41.812Z,97004.69
2023-04-11T02:25:13.623Z,97003.59
2023-04-11T02:27:45.313Z,97001.31
2023-04-11T02:30:17.021Z,96999.38
2023-04-11T02:32:49.068Z,97000.75
2023-04-11T02:35:20.832Z,96998.00
2023-04-11T02:37:52.496Z,96998.44
2023-04-11T02:40:24.206Z,97004.91
2023-04-11T02:42:55.763Z,97000.06
2023-04-11T02:45:27.388Z,97010.06
2023-04-11T02:47:59.064Z,97010.38
2023-04-11T02:50:30.735Z,97018.81
2023-04-11T02:53:02.627Z,97016.97
2023-04-11T02:55:34.442Z,97016.88
2023-04-11T02:58:06.156Z,97015.09
2023-04-11T03:00:37.932Z,97008.25
2023-04-11T03:03:12.795Z,97015.09
2023-04-11T03:05:48.367Z,97011.09
2023-04-11T03:08:24.082Z,97016.28
2023-04-11T03:10:58.068Z,97016.47
2023-04-11T03:13:30.772Z,97016.50
2023-04-11T03:16:02.744Z,97012.34
2023-04-11T03:18:36.602Z,97007.88
2023-04-11T03:21:11.474Z,96998.94
2023-04-11T03:23:47.311Z,96999.72
2023-04-11T03:26:20.448Z,97006.78
2023-04-11T03:28:52.964Z,96998.19
2023-04-11T03:31:25.053Z,97004.41
2023-04-11T03:33:58.839Z,97011.84
2023-04-11T03:36:30.404Z,97005.69
2023-04-11T03:39:07.608Z,97000.06
2023-04-11T03:41:39.398Z,97005.31
2023-04-11T03:44:14.147Z,96999.34
2023-04-11T03:46:46.151Z,96986.97
2023-04-11T03:49:18.068Z,96975.19
2023-04-11T03:51:57.204Z,96971.75
2023-04-11T03:54:30.970Z,96978.13
2023-04-11T03:57:02.576Z,96977.66
2023-04-11T03:59:35.232Z,96982.97
2023-04-11T04:02:12.092Z,96980.09
2023-04-11T04:04:50.201Z,96987.84
2023-04-11T04:07:31.912Z,96981.00
2023-04-11T04:10:20.467Z,96983.78
2023-04-11T04:12:55.661Z,96984.75
2023-04-11T04:15:37.374Z,96979.19
2023-04-11T04:18:09.117Z,96998.94
2023-04-11T04:20:51.660Z,97010.06
2023-04-11T04:23:24.877Z,97013.09
2023-04-11T04:26:23.711Z,97014.81
2023-04-11T04:29:01.450Z,97010.53
2023-04-11T04:31:37.858Z,97001.00
2023-04-11T04:34:11.561Z,97002.56
2023-04-11T04:36:48.245Z,96996.16
2023-04-11T04:39:26.761Z,97013.69
2023-04-11T04:42:00.057Z,97016.59
2023-04-11T04:44:37.748Z,97028.19
2023-04-11T04:47:18.217Z,97020.28
2023-04-11T04:49:54.994Z,97025.34
2023-04-11T04:52:28.883Z,97031.00
2023-04-11T04:55:01.480Z,97040.03
2023-04-11T04:57:33.310Z,97048.56
2023-04-11T05:00:08.635Z,97045.72
2023-04-11T05:02:40.607Z,97046.84
2023-04-11T05:05:13.250Z,97055.22
2023-04-11T05:07:45.276Z,97050.03
2023-04-11T05:10:17.439Z,97054.78
2023-04-11T05:12:49.976Z,97054.91
2023-04-11T05:15:22.373Z,97059.97
2023-04-11T05:17:55.197Z,97050.88
2023-04-11T05:20:27.072Z,97065.28
2023-04-11T05:22:58.813Z,97061.03
2023-04-11T05:25:30.573Z,97061.84
2023-04-11T05:28:02.229Z,97057.06
2023-04-11T05:30:33.923Z,97053.84
2023-04-11T05:33:05.754Z,97070.91
2023-04-11T05:35:37.922Z,97075.16
2023-04-11T05:38:09.533Z,97069.72
2023-04-11T05:40:41.249Z,97075.47
2023-04-11T05:43:13.283Z,97078.13
2023-04-11T05:45:45.091Z,97084.28
2023-04-11T05:48:17.463Z,97090.09
2023-04-11T05:50:51.228Z,97081.75
2023-04-11T05:53:23.056Z,97086.63
2023-04-11T05:55:54.902Z,97083.44
2023-04-11T05:58:26.603Z,97086.47
2023-04-11T06:00:58.398Z,97088.38
2023-04-11T06:03:30.170Z,97088.44
2023-04-11T06:06:02.063Z,97086.84
2023-04-11T06:08:33.826Z,97098.16
2023-04-11T06:11:05.694Z,97102.63
2023-04-11T06:13:37.307Z,97104.28
2023-04-11T06:16:09.268Z,97101.25
2023-04-11T06:18:40.965Z,97112.66
2023-04-11T06:21:13.352Z,97114.63
2023-04-11T06:23:45.076Z,97112.16
2023-04-11T06:26:17.098Z,97107.31
2023-04-11T06:28:51.867Z,97092.91
2023-04-11T06:31:23.765Z,97094.31
2023-04-11T06:33:56.248Z,97097.19
2023-04-11T06:36:29.905Z,97100.50
2023-04-11T06:39:01.565Z,97114.31
2023-04-11T06:41:33.152Z,97106.25
2023-04-11T06:44:04.753Z,97105.72
2023-04-11T06:46:37.009Z,97108.13
2023-04-11T06:49:18.416Z,97126.13
2023-04-11T06:51:50.121Z,97127.25
2023-04-11T06:54:26.147Z,97126.97
2023-04-11T06:56:58.166Z,97129.69
2023-04-11T06:59:30.087Z,97123.78
2023-04-11T07:02:01.734Z,97120.75
2023-04-11T07:04:33.608Z,97119.75
2023-04-11T07:07:05.408Z,97130.56
2023-04-11T07:09:36.946Z,97121.19
2023-04-11T07:12:08.501Z,97130.06
2023-04-11T07:14:40.105Z,97129.94
2023-04-11T07:17:12.211Z,97126.22
2023-04-11T07:19:44.858Z,97127.59
2023-04-11T07:22:16.446Z,97141.00
2023-04-11T07:24:51.826Z,97147.34
2023-04-11T07:27:23.858Z,97147.78
2023-04-11T07:29:56.044Z,97137.50
2023-04-11T07:32:27.631Z,97136.53
2023-04-11T07:34:59.288Z,97134.94
2023-04-11T07:37:30.909Z,97125.75
2023-04-11T07:40:02.501Z,97139.25
2023-04-11T07:42:34.206Z,97136.19
2023-04-11T07:45:08.085Z,97122.69
2023-04-11T07:47:39.742Z,97119.50
2023-04-11T07:50:11.976Z,97123.44
2023-04-11T07:52:43.679Z,97127.47
2023-04-11T07:55:15.442Z,97119.16
2023-04-11T07:57:47.044Z,97124.72
2023-04-11T08:00:20.314Z,97113.81
2023-04-11T08:02:52.138Z,97126.31
2023-04-11T08:05:24.122Z,97118.88
2023-04-11T08:07:56.255Z,97119.22
2023-04-11T08:10:27.925Z,97118.28
2023-04-11T08:12:59.557Z,97115.25
2023-04-11T08:15:31.134Z,97128.28
2023-04-11T08:18:02.929Z,97112.88
2023-04-11T08:20:34.657Z,97106.72
2023-04-11T08:23:06.311Z,97109.81
2023-04-11T08:25:37.948Z,97117.59
2023-04-11T08:28:09.517Z,97116.88
2023-04-11T08:30:41.172Z,97123.34
2023-04-11T08:33:12.787Z,97125.22
2023-04-11T08:35:44.432Z,97130.03
2023-04-11T08:38:16.303Z,97141.63
2023-04-11T08:40:48.006Z,97140.59
2023-04-11T08:43:19.690Z,97152.84
2023-04-11T08:45:51.353Z,97155.38
2023-04-11T08:48:22.965Z,97158.34
2023-04-11T08:50:54.570Z,97150.22
2023-04-11T08:53:27.933Z,97148.69
2023-04-11T08:55:59.541Z,97134.91
2023-04-11T08:58:31.137Z,97139.38
2023-04-11T09:01:25.054Z,97139.06
2023-04-11T09:03:57.191Z,97141.06
2023-04-11T09:06:29.597Z,97138.47
2023-04-11T09:09:04.116Z,97137.47
2023-04-11T09:11:53.966Z,97135.69
2023-04-11T09:14:26.524Z,97134.63
2023-04-11T09:17:03.731Z,97139.19
2023-04-11T09:19:35.852Z,97127.00
2023-04-11T09:22:08.091Z,97140.22
2023-04-11T09:24:39.753Z,97137.53
2023-04-11T09:27:17.078Z,97137.34
2023-04-11T09:29:49.083Z,97137.13
2023-04-11T09:32:31.224Z,97141.75
2023-04-11T09:35:15.077Z,97147.03
2023-04-11T09:37:52.512Z,97147.91
2023-04-11T09:40:28.927Z,97143.81
2023-04-11T09:43:03.884Z,97118.72
2023-04-11T09:45:44.266Z,97131.47
2023-04-11T09:48:32.085Z,97126.47
2023-04-11T09:51:12.655Z,97129.16
2023-04-11T09:53:45.993Z,97130.81
2023-04-11T09:56:17.628Z,97130.50
2023-04-11T09:58:49.667Z,97124.66
2023-04-11T10:01:23.535Z,97129.25
2023-04-11T10:03:56.149Z,97124.19
2023-04-11T10:06:34.521Z,97135.78
2023-04-11T10:09:08.278Z,97126.81
2023-04-11T10:11:44.453Z,97120.63
2023-04-11T10:14:48.594Z,97124.13
2023-04-11T10:17:22.760Z,97113.47
2023-04-11T10:19:56.084Z,97113.63
2023-04-11T10:22:42.830Z,97119.81
2023-04-11T10:25:19.463Z,97117.59
2023-04-11T10:27:57.067Z,97109.31
2023-04-11T10:30:48.843Z,97113.72
2023-04-11T10:33:23.196Z,97109.31
2023-04-11T10:36:02.395Z,97117.66
2023-04-11T10:38:37.060Z,97111.34
2023-04-11T10:41:16.545Z,97117.31
2023-04-11T10:43:49.431Z,97114.50
2023-04-11T10:46:21.107Z,97121.25
2023-04-11T10:49:03.704Z,97108.16
2023-04-11T10:51:35.339Z,97103.59
2023-04-11T10:54:24.390Z,97098.66
2023-04-11T10:56:56.280Z,97099.53
2023-04-11T10:59:33.718Z,97100.66
2023-04-11T11:02:05.449Z,97091.78
2023-04-11T11:04:38.833Z,97087.97
2023-04-11T11:07:15.159Z,97101.41
2023-04-11T11:09:50.020Z,97115.84
2023-04-11T11:12:21.692Z,97114.19
2023-04-11T11:14:53.272Z,97108.56
2023-04-11T11:17:24.930Z,97101.94
2023-04-11T11:19:56.586Z,97104.88
2023-04-11T11:22:28.282Z,97105.31
2023-04-11T11:25:08.283Z,97105.75
2023-04-11T11:27:39.952Z,97108.31
2023-04-11T11:30:12.154Z,97104.34
2023-04-11T11:32:43.780Z,97110.78
2023-04-11T11:35:15.364Z,97113.19
2023-04-11T11:37:47.002Z,97109.41
2023-04-11T11:40:20.891Z,97111.81
2023-04-11T11:42:52.780Z,97116.28
2023-04-11T11:48:01.263Z,97112.59
2023-04-11T11:50:34.424Z,97124.25
2023-04-11T11:53:16.711Z,97118.59
2023-04-11T11:55:48.669Z,97117.06
2023-04-11T11:58:20.732Z,97105.38
2023-04-11T12:00:54.710Z,97100.63
2023-04-11T12:03:27.048Z,97089.94
2023-04-11T12:05:58.994Z,97088.88
2023-04-11T12:08:33.456Z,97090.28
2023-04-11T12:11:12.535Z,97097.84
2023-04-11T12:13:44.613Z,97088.78
2023-04-11T12:16:21.071Z,97096.44
2023-04-11T12:18:52.770Z,97099.06
2023-04-11T12:21:24.403Z,97093.56
2023-04-11T12:23:56.562Z,97092.81
2023-04-11T12:26:28.246Z,97098.94
2023-04-11T12:28:59.789Z,97100.72
2023-04-11T12:31:31.357Z,97095.69
2023-04-11T12:34:03.110Z,97093.00
2023-04-11T12:36:35.392Z,97076.19
2023-04-11T12:39:06.970Z,97084.25
2023-04-11T12:41:38.813Z,97090.19
2023-04-11T12:44:10.631Z,97086.31
2023-04-11T12:46:42.328Z,97088.28
2023-04-11T12:49:14.085Z,97087.97
2023-04-11T12:51:45.724Z,97079.69
2023-04-11T12:54:17.302Z,97076.38
2023-04-11T12:56:48.950Z,97072.94
2023-04-11T12:59:20.604Z,97073.25
2023-04-11T13:01:52.472Z,97074.19
2023-04-11T13:04:24.249Z,97072.81
2023-04-11T13:06:55.996Z,97075.44
2023-04-11T13:09:28.249Z,97073.75
2023-04-11T13:12:01.033Z,97067.13
2023-04-11T13:14:32.801Z,97063.06
2023-04-11T13:17:04.460Z,97072.56
2023-04-11T13:19:36.168Z,97067.69
2023-04-11T13:22:07.826Z,97063.47
2023-04-11T13:24:39.479Z,97062.91
2023-04-11T13:27:11.179Z,97051.06
2023-04-11T13:29:42.803Z,97039.16
2023-04-11T13:32:14.448Z,97051.16
2023-04-11T13:34:46.069Z,97053.88
2023-04-11T13:37:17.720Z,97041.72
2023-04-11T13:39:49.399Z,97039.50
2023-04-11T13:42:21.048Z,97032.38
2023-04-11T13:44:52.615Z,97035.69
2023-04-11T13:47:24.418Z,97029.19
2023-04-11T13:49:55.990Z,97030.84
2023-04-11T13:52:27.514Z,97035.56
2023-04-11T13:54:59.155Z,97035.66
2023-04-11T13:57:30.805Z,97043.75
2023-04-11T14:00:02.443Z,97036.22
2023-04-11T14:02:36.541Z,97032.22
2023-04-11T14:05:09.432Z,97033.22
2023-04-11T14:07:41.294Z,97030.03
2023-04-11T14:10:12.929Z,97020.97
2023-04-11T14:12:44.606Z,97026.22
2023-04-11T14:15:16.426Z,97024.91
2023-04-11T14:17:48.190Z,97016.50
2023-04-11T14:20:20.122Z,97018.56
2023-04-11T14:22:52.236Z,97019.19
2023-04-11T14:25:23.856Z,97022.09
2023-04-11T14:27:55.544Z,97006.69
2023-04-11T14:30:27.432Z,96996.44
2023-04-11T14:32:59.190Z,97000.56
2023-04-11T14:35:30.846Z,96990.38
2023-04-11T14:38:02.515Z,96992.59
2023-04-11T14:40:34.210Z,96998.59
2023-04-11T14:43:05.772Z,96992.59
2023-04-11T14:45:37.447Z,96981.06
2023-04-11T14:48:09.159Z,96973.16
2023-04-11T14:50:40.846Z,96963.84
2023-04-11T14:53:12.450Z,96972.22
2023-04-11T14:55:44.735Z,96970.13
2023-04-11T14:58:16.565Z,96966.78
2023-04-11T15:00:49.322Z,96959.69
2023-04-11T15:03:21.096Z,96965.59
2023-04-11T15:05:53.012Z,96960.50
2023-04-11T15:08:24.627Z,96962.16
2023-04-11T15:10:56.264Z,96946.44
2023-04-11T15:13:27.978Z,96946.91
2023-04-11T15:16:01.481Z,96938.66
2023-04-11T15:18:33.178Z,96940.28
2023-04-11T15:21:05.007Z,96937.00
2023-04-11T15:23:36.676Z,96926.81
2023-04-11T15:26:08.561Z,96925.56
2023-04-11T15:28:40.247Z,96933.75
2023-04-11T15:31:11.960Z,96935.38
2023-04-11T15:33:43.621Z,96916.63
2023-04-11T15:36:15.224Z,96923.00
2023-04-11T15:38:49.093Z,96921.91
2023-04-11T15:41:20.595Z,96911.00
2023-04-11T15:43:52.217Z,96913.31
2023-04-11T15:46:24.091Z,96911.66
2023-04-11T15:48:55.704Z,96909.06
2023-04-11T15:51:27.330Z,96915.53
2023-04-11T15:53:59.177Z,96913.69
2023-04-11T15:56:31.600Z,96898.97
2023-04-11T15:59:03.348Z,96892.50
2023-04-11T16:01:34.914Z,96892.44
2023-04-11T16:04:06.610Z,96895.03
2023-04-11T16:06:38.786Z,96891.69
2023-04-11T16:09:10.440Z,96888.97
2023-04-11T16:11:42.086Z,96887.06
2023-04-11T16:14:13.727Z,96884.75
2023-04-11T16:16:45.362Z,96882.66
2023-04-11T16:19:16.978Z,96881.75
2023-04-11T16:21:48.637Z,96879.22
2023-04-11T16:24:20.214Z,96880.16
2023-04-11T16:26:51.794Z,96884.06
2023-04-11T16:29:23.466Z,96885.19
2023-04-11T16:31:55.098Z,96884.13
2023-04-11T16:34:29.894Z,96880.00
2023-04-11T16:37:04.907Z,96875.84
2023-04-11T16:39:36.436Z,96872.91
2023-04-11T16:42:08.024Z,96862.09
2023-04-11T16:44:39.617Z,96860.22
2023-04-11T16:47:11.271Z,96863.00
2023-04-11T16:49:44.356Z,96853.72
2023-04-11T16:52:16.595Z,96849.66
2023-04-11T16:54:48.337Z,96854.88
2023-04-11T16:57:19.935Z,96858.97
2023-04-11T16:59:51.580Z,96849.84
2023-04-11T17:02:23.289Z,96857.16
2023-04-11T17:04:54.937Z,96859.19
2023-04-11T17:07:26.541Z,96856.84
2023-04-11T17:09:58.131Z,96848.56
2023-04-11T17:12:29.674Z,96838.47
2023-04-11T17:15:01.245Z,96840.50
2023-04-11T17:17:33.088Z,96846.22
2023-04-11T17:20:06.805Z,96850.03
2023-04-11T17:22:42.724Z,96847.66
2023-04-11T17:25:14.794Z,96849.81
2023-04-11T17:27:46.568Z,96848.84
2023-04-11T17:30:18.247Z,96848.13
2023-04-11T17:32:50.067Z,96856.69
2023-04-11T17:35:21.780Z,96846.84
2023-04-11T17:37:54.036Z,96840.84
2023-04-11T17:40:25.673Z,96842.03
2023-04-11T17:42:57.466Z,96845.84
2023-04-11T17:45:29.933Z,96845.38
2023-04-11T17:48:02.279Z,96835.72
2023-04-11T17:50:34.075Z,96843.75
2023-04-11T17:53:05.773Z,96835.72
2023-04-11T17:55:37.364Z,96836.91
2023-04-11T17:58:43.161Z,96830.47
2023-04-11T18:01:14.897Z,96833.81
2023-04-11T18:03:46.627Z,96844.38
2023-04-11T18:06:18.325Z,96843.53
2023-04-11T18:08:51.721Z,96841.56
2023-04-11T18:11:23.824Z,96846.16
2023-04-11T18:13:55.964Z,96840.75
2023-04-11T18:16:27.915Z,96840.72
2023-04-11T18:18:59.730Z,96841.19
2023-04-11T18:21:31.335Z,96836.00
2023-04-11T18:24:03.048Z,96829.22
2023-04-11T18:26:34.661Z,96828.09
2023-04-11T18:29:06.228Z,96829.69
2023-04-11T18:31:37.831Z,96826.06
2023-04-11T18:34:09.731Z,96827.47
2023-04-11T18:36:41.615Z,96834.75
2023-04-11T18:39:13.307Z,96838.19
2023-04-11T18:41:45.306Z,96833.00
2023-04-11T18:44:17.337Z,96846.72
2023-04-11T18:46:51.451Z,96846.59
2023-04-11T18:49:23.610Z,96847.81
2023-04-11T18:51:55.238Z,96848.81
2023-04-11T18:54:26.872Z,96842.47
2023-04-11T18:56:59.358Z,96842.63
2023-04-11T18:59:33.616Z,96849.97
2023-04-11T19:02:06.899Z,96846.75
2023-04-11T19:04:38.995Z,96851.31
2023-04-11T19:07:10.673Z,96850.25
2023-04-11T19:09:43.228Z,96847.66
2023-04-11T19:12:14.932Z,96842.50
2023-04-11T19:14:46.567Z,96843.13
2023-04-11T19:17:18.743Z,96841.28
2023-04-11T19:19:53.068Z,96857.69
2023-04-11T19:22:24.692Z,96846.28
2023-04-11T19:24:56.271Z,96857.22
2023-04-11T19:27:27.995Z,96855.38
2023-04-11T19:29:59.677Z,96847.69
2023-04-11T19:32:32.081Z,96841.38
2023-04-11T19:35:07.029Z,96840.75
2023-04-11T19:37:39.100Z,96835.03
2023-04-11T19:40:11.102Z,96837.84
2023-04-11T19:42:44.811Z,96832.53
2023-04-11T19:45:16.406Z,96828.44
2023-04-11T19:47:48.067Z,96832.66
2023-04-11T19:50:19.968Z,96825.91
2023-04-11T19:52:55.117Z,96819.50
2023-04-11T19:55:27.281Z,96820.06
2023-04-11T19:57:58.887Z,96813.00
2023-04-11T20:00:30.713Z,96807.22
2023-04-11T20:03:02.475Z,96803.06
2023-04-11T20:05:34.162Z,96802.47
2023-04-11T20:08:05.794Z,96793.88
2023-04-11T20:10:38.492Z,96793.56
2023-04-11T20:13:10.116Z,96792.38
2023-04-11T20:15:41.772Z,96800.78
2023-04-11T20:18:13.522Z,96794.25
2023-04-11T20:20:45.375Z,96784.94
2023-04-11T20:23:16.967Z,96794.25
2023-04-11T20:25:48.612Z,96785.78
2023-04-11T20:28:20.198Z,96781.22
2023-04-11T20:30:51.979Z,96777.91
2023-04-11T20:33:23.625Z,96780.25
2023-04-11T20:35:55.328Z,96774.19
2023-04-11T20:38:26.952Z,96768.53
2023-04-11T20:40:58.669Z,96776.28
2023-04-11T20:43:31.197Z,96770.06
2023-04-11T20:46:04.076Z,96757.44
2023-04-11T20:48:35.812Z,96748.09
2023-04-11T20:51:07.488Z,96747.56
2023-04-11T20:53:39.086Z,96737.44
2023-04-11T20:56:10.756Z,96739.03
2023-04-11T20:58:42.382Z,96735.78
2023-04-11T21:01:14.051Z,96729.09
2023-04-11T21:03:46.006Z,96717.03
2023-04-11T21:06:17.835Z,96714.78
2023-04-11T21:08:49.399Z,96709.69
2023-04-11T21:11:21.010Z,96703.25
2023-04-11T21:13:52.656Z,96709.50
2023-04-11T21:16:24.451Z,96706.13
2023-04-11T21:18:56.214Z,96706.72
2023-04-11T21:21:27.872Z,96700.38
2023-04-11T21:23:59.622Z,96703.66
2023-04-11T21:26:31.295Z,96713.03
2023-04-11T21:29:02.912Z,96707.22
2023-04-11T21:31:34.628Z,96702.63
2023-04-11T21:34:06.274Z,96694.03
2023-04-11T21:36:37.893Z,96686.84
2023-04-11T21:39:09.598Z,96686.00
2023-04-11T21:41:47.460Z,96681.84
2023-04-11T21:44:23.105Z,96677.09
2023-04-11T21:46:58.768Z,96683.13
2023-04-11T21:49:31.798Z,96682.50
2023-04-11T21:52:03.379Z,96686.41
2023-04-11T21:54:35.450Z,96701.06
2023-04-11T21:57:07.076Z,96690.50
2023-04-11T21:59:38.912Z,96671.94
2023-04-11T22:02:10.669Z,96670.03
2023-04-11T22:04:51.625Z,96662.75
2023-04-11T22:07:27.839Z,96672.47
2023-04-11T22:09:59.419Z,96675.47
2023-04-11T22:12:31.067Z,96674.59
2023-04-11T22:15:03.085Z,96670.00
2023-04-11T22:17:34.895Z,96666.38
2023-04-11T22:20:06.967Z,96666.03
2023-04-11T22:22:38.550Z,96664.13
2023-04-11T22:25:10.175Z,96654.16
2023-04-11T22:27:41.795Z,96644.34
2023-04-11T22:30:14.138Z,96643.00
2023-04-11T22:32:45.698Z,96647.84
2023-04-11T22:35:17.685Z,96643.66
2023-04-11T22:37:49.347Z,96627.97
2023-04-11T22:40:21.331Z,96629.22
2023-04-11T22:42:53.619Z,96625.56
2023-04-11T22:45:25.162Z,96620.72
2023-04-11T22:47:56.811Z,96602.53
2023-04-11T22:50:28.478Z,96597.97
2023-04-11T22:53:00.112Z,96598.50
2023-04-11T22:55:32.651Z,96591.69
2023-04-11T22:58:04.262Z,96578.19
2023-04-11T23:00:35.836Z,96582.69
2023-04-11T23:03:07.643Z,96576.41
2023-04-11T23:05:39.975Z,96579.66
2023-04-11T23:08:11.604Z,96586.03
2023-04-11T23:10:43.358Z,96581.41
2023-04-11T23:13:15.173Z,96582.94
2023-04-11T23:15:46.960Z,96577.31
2023-04-11T23:18:19.048Z,96585.94
2023-04-11T23:20:50.923Z,96584.97
2023-04-11T23:23:22.880Z,96579.59
2023-04-11T23:25:54.561Z,96571.88
2023-04-11T23:28:26.289Z,96573.44
2023-04-11T23:30:58.105Z,96559.69
2023-04-11T23:33:29.881Z,96564.38
2023-04-11T23:36:01.489Z,96551.53
2023-04-11T23:38:33.130Z,96543.31
2023-04-11T23:43:56.671Z,96540.94
2023-04-11T23:46:28.675Z,96527.69
2023-04-11T23:49:00.314Z,96526.13
2023-04-11T23:51:31.913Z,96521.25
2023-04-11T23:54:03.656Z,96516.50
2023-04-11T23:56:35.270Z,96508.78
2023-04-11T23:59:06.890Z,96504.56
